Time;durP1;ratioP1;P1;durP2;ratioP2;P2;SDS_P1;SDS_P2;PMS_P1;PMS_P2;Temp;Humidity;BMP_temperature;BMP_pressure;BME280_temperature;BME280_humidity;BME280_pressure;Samples;Min_cycle;Max_cycle;Signal;HPM_P1;HPM_P2
2023/10/02 00:01:47;;;;;;;1.95;1.60;;;;;;;;;;5053355;28;20041;-62
2023/10/02 00:04:16;;;;;;;2.28;1.90;;;;;;;;;;5055356;28;20045;-62
2023/10/02 00:06:43;;;;;;;2.08;1.50;;;;;;;;;;5049547;28;20033;-62
2023/10/02 00:09:09;;;;;;;2.28;1.73;;;;;;;;;;5055787;28;20051;-62
2023/10/02 00:11:41;;;;;;;3.75;1.95;;;;;;;;;;5054310;28;20044;-62
2023/10/02 00:14:18;;;;;;;2.80;2.08;;;;;;;;;;5051892;28;20570;-62
2023/10/02 00:16:58;;;;;;;4.03;2.33;;;;;;;;;;5056858;28;20481;-62
2023/10/02 00:19:27;;;;;;;2.30;1.90;;;;;;;;;;5052234;28;20051;-62
2023/10/02 00:21:57;;;;;;;2.28;1.90;;;;;;;;;;5055981;28;20045;-62
2023/10/02 00:24:24;;;;;;;2.75;2.20;;;;;;;;;;5057443;28;20468;-62
2023/10/02 00:26:51;;;;;;;2.10;1.80;;;;;;;;;;5056310;28;20148;-62
2023/10/02 00:29:17;;;;;;;2.20;1.85;;;;;;;;;;5054843;28;20048;-62
2023/10/02 00:31:46;;;;;;;2.92;2.17;;;;;;;;;;5055602;28;20056;-62
2023/10/02 00:34:15;;;;;;;5.60;2.72;;;;;;;;;;5050754;28;20040;-62
2023/10/02 00:36:42;;;;;;;3.80;2.42;;;;;;;;;;5052327;28;20036;-62
2023/10/02 00:39:30;;;;;;;4.90;2.45;;;;;;;;;;5054480;28;20112;-63
2023/10/02 00:45:01;;;;;;;3.40;2.40;;;;;;;;;;5050920;28;20553;-62
2023/10/02 00:47:42;;;;;;;3.03;2.53;;;;;;;;;;5051716;28;20515;-62
2023/10/02 00:50:16;;;;;;;3.67;2.72;;;;;;;;;;5052545;28;20068;-62
2023/10/02 00:52:43;;;;;;;3.38;2.13;;;;;;;;;;5052951;28;20473;-62
2023/10/02 00:55:11;;;;;;;3.72;2.53;;;;;;;;;;5054054;28;20056;-62
2023/10/02 00:57:39;;;;;;;3.20;2.53;;;;;;;;;;5051488;28;20128;-62
2023/10/02 01:00:17;;;;;;;2.65;2.05;;;;;;;;;;5054619;28;20045;-62
2023/10/02 01:02:45;;;;;;;2.85;2.00;;;;;;;;;;5052946;28;20647;-62
2023/10/02 01:05:14;;;;;;;3.53;2.25;;;;;;;;;;5055071;28;20040;-62
2023/10/02 01:07:41;;;;;;;3.20;2.60;;;;;;;;;;5053257;28;20584;-62
2023/10/02 01:10:08;;;;;;;2.83;2.53;;;;;;;;;;5051788;28;20040;-65
2023/10/02 01:12:43;;;;;;;4.57;2.95;;;;;;;;;;5054173;28;20075;-62
2023/10/02 01:15:13;;;;;;;2.90;2.10;;;;;;;;;;5054925;28;20044;-62
2023/10/02 01:17:45;;;;;;;3.97;2.28;;;;;;;;;;5052446;28;20501;-62
2023/10/02 01:20:53;;;;;;;3.45;2.53;;;;;;;;;;5054291;28;20118;-62
2023/10/02 01:23:12;;;;;;;3.45;2.95;;;;;;;;;;5050240;28;20045;-62
2023/10/02 01:25:42;;;;;;;2.95;2.65;;;;;;;;;;5055901;28;20051;-62
2023/10/02 01:28:10;;;;;;;3.42;2.70;;;;;;;;;;5053825;28;20504;-62
2023/10/02 01:30:37;;;;;;;3.28;2.47;;;;;;;;;;5051230;28;20052;-62
2023/10/02 01:33:06;;;;;;;2.95;2.35;;;;;;;;;;5054098;28;20041;-62
2023/10/02 01:35:52;;;;;;;2.40;1.80;;;;;;;;;;5053190;28;20040;-62
2023/10/02 01:38:26;;;;;;;2.03;1.80;;;;;;;;;;5050694;28;20049;-62
2023/10/02 01:41:14;;;;;;;2.55;1.90;;;;;;;;;;5050300;28;20530;-62
2023/10/02 01:43:45;;;;;;;2.50;2.28;;;;;;;;;;5051961;28;20094;-62
2023/10/02 01:46:17;;;;;;;3.58;2.40;;;;;;;;;;5053949;28;20052;-63
2023/10/02 01:48:48;;;;;;;3.72;2.58;;;;;;;;;;5052489;28;20049;-62
2023/10/02 01:51:21;;;;;;;3.60;2.30;;;;;;;;;;5054386;28;20048;-62
2023/10/02 01:53:48;;;;;;;2.42;2.17;;;;;;;;;;5049964;28;20292;-62
2023/10/02 01:56:15;;;;;;;2.50;2.30;;;;;;;;;;5052410;28;20106;-62
2023/10/02 01:58:42;;;;;;;2.58;2.30;;;;;;;;;;5053017;28;20043;-62
2023/10/02 02:01:09;;;;;;;3.83;2.13;;;;;;;;;;5050268;28;20711;-62
2023/10/02 02:03:39;;;;;;;2.25;1.95;;;;;;;;;;5055166;28;20032;-62
2023/10/02 02:06:11;;;;;;;2.70;2.17;;;;;;;;;;5051781;28;20043;-62
2023/10/02 02:08:43;;;;;;;3.38;2.28;;;;;;;;;;5055067;28;20095;-62
2023/10/02 02:11:16;;;;;;;3.78;2.30;;;;;;;;;;5050702;28;20037;-62
2023/10/02 02:13:46;;;;;;;3.22;2.03;;;;;;;;;;5051156;28;20493;-62
2023/10/02 02:16:16;;;;;;;3.20;2.05;;;;;;;;;;5050306;28;20037;-62
2023/10/02 02:18:43;;;;;;;1.88;1.60;;;;;;;;;;5057360;28;20051;-62
2023/10/02 02:21:16;;;;;;;2.28;1.88;;;;;;;;;;5050987;28;20056;-62
2023/10/02 02:23:42;;;;;;;2.28;1.98;;;;;;;;;;5051745;28;20037;-62
2023/10/02 02:26:08;;;;;;;3.60;2.33;;;;;;;;;;5052671;28;20068;-62
2023/10/02 02:28:43;;;;;;;3.15;2.35;;;;;;;;;;5051831;28;20044;-62
2023/10/02 02:31:31;;;;;;;2.40;2.20;;;;;;;;;;5052731;28;20044;-62
2023/10/02 02:34:01;;;;;;;2.90;2.08;;;;;;;;;;5047617;28;20045;-62
2023/10/02 02:36:27;;;;;;;2.60;2.03;;;;;;;;;;5051210;28;20033;-62
2023/10/02 02:39:15;;;;;;;2.30;1.90;;;;;;;;;;5054334;28;20036;-62
2023/10/02 02:41:41;;;;;;;3.15;1.88;;;;;;;;;;5050287;28;20401;-62
2023/10/02 02:44:29;;;;;;;3.53;2.28;;;;;;;;;;5051087;28;20048;-62
2023/10/02 02:46:53;;;;;;;2.83;2.30;;;;;;;;;;5053429;28;20294;-62
2023/10/02 02:49:21;;;;;;;4.43;2.88;;;;;;;;;;5052889;28;20048;-63
2023/10/02 02:51:50;;;;;;;4.18;2.90;;;;;;;;;;5050062;28;20041;-63
2023/10/02 02:54:16;;;;;;;3.30;2.83;;;;;;;;;;5046986;28;20032;-63
2023/10/02 02:56:42;;;;;;;4.05;3.00;;;;;;;;;;5051549;28;20098;-63
2023/10/02 02:59:08;;;;;;;2.38;2.10;;;;;;;;;;5050660;28;20040;-63
2023/10/02 03:01:34;;;;;;;3.35;2.38;;;;;;;;;;5050381;28;20393;-63
2023/10/02 03:04:13;;;;;;;3.60;2.63;;;;;;;;;;5050940;28;20079;-63
2023/10/02 03:06:42;;;;;;;4.53;3.10;;;;;;;;;;5048890;28;20040;-63
2023/10/02 03:09:08;;;;;;;4.10;3.30;;;;;;;;;;5051729;28;20493;-65
2023/10/02 03:11:34;;;;;;;5.47;3.78;;;;;;;;;;5049553;28;20036;-63
2023/10/02 03:14:13;;;;;;;5.22;4.22;;;;;;;;;;5054143;28;20499;-63
2023/10/02 03:16:40;;;;;;;5.40;4.05;;;;;;;;;;5051728;28;20041;-62
2023/10/02 03:19:13;;;;;;;3.97;3.00;;;;;;;;;;5048986;28;20453;-62
2023/10/02 03:21:42;;;;;;;3.35;3.05;;;;;;;;;;5050695;28;20049;-62
2023/10/02 03:24:08;;;;;;;5.50;3.95;;;;;;;;;;5049814;28;20044;-62
2023/10/02 03:29:01;;;;;;;2.90;2.60;;;;;;;;;;5052318;28;20115;-62
2023/10/02 03:31:37;;;;;;;4.05;2.72;;;;;;;;;;5054900;28;20186;-62
2023/10/02 03:36:49;;;;;;;3.60;3.00;;;;;;;;;;5049765;28;20036;-62
2023/10/02 03:39:23;;;;;;;3.03;2.50;;;;;;;;;;5050195;28;20033;-62
2023/10/02 03:41:55;;;;;;;3.60;2.65;;;;;;;;;;5066085;28;20428;-62
2023/10/02 03:44:22;;;;;;;3.70;2.72;;;;;;;;;;5053437;28;20055;-63
2023/10/02 03:46:48;;;;;;;4.38;3.47;;;;;;;;;;5057470;28;20107;-62
2023/10/02 03:49:18;;;;;;;3.95;3.30;;;;;;;;;;5057119;28;20079;-62
2023/10/02 03:51:45;;;;;;;4.70;3.28;;;;;;;;;;5053835;28;20049;-62
2023/10/02 03:54:17;;;;;;;3.58;2.80;;;;;;;;;;5057401;28;20135;-62
2023/10/02 03:56:49;;;;;;;3.33;2.95;;;;;;;;;;5053599;28;20055;-62
2023/10/02 03:59:26;;;;;;;4.38;3.60;;;;;;;;;;5055845;28;20044;-62
2023/10/02 04:01:53;;;;;;;4.97;3.15;;;;;;;;;;5056771;28;20048;-63
2023/10/02 04:04:21;;;;;;;3.13;2.72;;;;;;;;;;5055972;28;20758;-62
2023/10/02 04:06:48;;;;;;;3.20;2.90;;;;;;;;;;5054060;28;20044;-62
2023/10/02 04:11:44;;;;;;;4.22;3.00;;;;;;;;;;5049105;28;20075;-62
2023/10/02 04:14:17;;;;;;;2.67;2.47;;;;;;;;;;5051771;28;20044;-62
2023/10/02 04:16:51;;;;;;;3.00;2.70;;;;;;;;;;5050676;28;20474;-62
2023/10/02 04:19:23;;;;;;;3.30;2.28;;;;;;;;;;5049135;28;20123;-62
2023/10/02 04:21:49;;;;;;;2.70;2.00;;;;;;;;;;5058469;28;20146;-62
2023/10/02 04:24:23;;;;;;;2.72;2.35;;;;;;;;;;5057155;28;20123;-62
2023/10/02 04:26:53;;;;;;;2.45;2.10;;;;;;;;;;5052603;28;20115;-62
2023/10/02 04:29:28;;;;;;;2.72;2.22;;;;;;;;;;5051978;28;20114;-62
2023/10/02 04:34:46;;;;;;;3.03;2.20;;;;;;;;;;5044319;28;20075;-62
2023/10/02 04:37:22;;;;;;;2.92;2.13;;;;;;;;;;5053984;28;20053;-62
2023/10/02 04:39:59;;;;;;;3.17;2.30;;;;;;;;;;5056155;28;20033;-62
2023/10/02 04:42:28;;;;;;;2.42;2.20;;;;;;;;;;5052252;28;20044;-62
2023/10/02 04:44:58;;;;;;;4.75;2.95;;;;;;;;;;5054101;28;20060;-62
2023/10/02 04:47:26;;;;;;;3.30;2.83;;;;;;;;;;5053807;28;20041;-62
2023/10/02 04:52:55;;;;;;;3.90;2.78;;;;;;;;;;5052894;28;20044;-62
2023/10/02 04:55:31;;;;;;;3.38;2.70;;;;;;;;;;5049744;28;20057;-62
2023/10/02 04:58:04;;;;;;;3.25;2.78;;;;;;;;;;5046969;28;20061;-63
2023/10/02 05:00:33;;;;;;;4.22;3.00;;;;;;;;;;5050737;28;20037;-62
2023/10/02 05:05:53;;;;;;;2.90;2.60;;;;;;;;;;5052424;28;20513;-62
2023/10/02 05:08:31;;;;;;;4.20;3.08;;;;;;;;;;5051044;28;20646;-62
2023/10/02 05:10:57;;;;;;;5.55;4.13;;;;;;;;;;5054727;28;20045;-63
2023/10/02 05:16:12;;;;;;;5.53;4.20;;;;;;;;;;5052761;28;20041;-62
2023/10/02 05:18:44;;;;;;;4.93;4.13;;;;;;;;;;5054630;28;20044;-62
2023/10/02 05:21:11;;;;;;;4.72;4.22;;;;;;;;;;5051756;28;20090;-62
2023/10/02 05:23:38;;;;;;;4.43;2.90;;;;;;;;;;5050127;28;20186;-62
2023/10/02 05:26:04;;;;;;;3.20;2.60;;;;;;;;;;5049157;28;20139;-62
2023/10/02 05:28:42;;;;;;;3.92;3.00;;;;;;;;;;5053140;28;20885;-62
2023/10/02 05:31:09;;;;;;;4.97;2.92;;;;;;;;;;5051274;28;21111;-62
2023/10/02 05:33:38;;;;;;;3.08;2.67;;;;;;;;;;5054802;28;20052;-62
2023/10/02 05:36:08;;;;;;;4.22;2.88;;;;;;;;;;5052852;28;20141;-62
2023/10/02 05:38:35;;;;;;;3.20;2.58;;;;;;;;;;5055438;28;20056;-62
2023/10/02 05:41:03;;;;;;;4.30;2.58;;;;;;;;;;5052066;28;20087;-62
2023/10/02 05:43:31;;;;;;;2.58;1.85;;;;;;;;;;5055610;28;20123;-62
2023/10/02 05:45:57;;;;;;;3.13;2.55;;;;;;;;;;5055768;28;20049;-63
2023/10/02 05:50:53;;;;;;;2.00;1.80;;;;;;;;;;5051076;28;20044;-62
2023/10/02 05:53:21;;;;;;;3.22;2.17;;;;;;;;;;5052923;28;20060;-62
2023/10/02 05:56:06;;;;;;;2.53;1.95;;;;;;;;;;5050366;28;20052;-62
2023/10/02 05:58:32;;;;;;;2.10;1.80;;;;;;;;;;5052174;28;20090;-62
2023/10/02 06:01:03;;;;;;;3.75;2.38;;;;;;;;;;5044083;28;20053;-62
2023/10/02 06:03:34;;;;;;;3.15;2.55;;;;;;;;;;5052368;28;20036;-62
2023/10/02 06:06:15;;;;;;;2.58;2.33;;;;;;;;;;5050361;28;20453;-62
2023/10/02 06:08:41;;;;;;;2.85;2.55;;;;;;;;;;5052576;28;20052;-62
2023/10/02 06:11:26;;;;;;;2.92;2.55;;;;;;;;;;5051874;28;20048;-62
2023/10/02 06:13:58;;;;;;;3.63;2.78;;;;;;;;;;5053161;28;20029;-62
2023/10/02 06:16:30;;;;;;;4.45;2.83;;;;;;;;;;5050919;28;20550;-63
2023/10/02 06:19:03;;;;;;;3.88;3.00;;;;;;;;;;5048916;28;20110;-63
2023/10/02 06:21:29;;;;;;;3.92;2.88;;;;;;;;;;5049763;28;20128;-63
2023/10/02 06:23:56;;;;;;;3.53;2.85;;;;;;;;;;5056476;28;20054;-63
2023/10/02 06:26:29;;;;;;;2.95;2.53;;;;;;;;;;5056344;28;20083;-63
2023/10/02 06:29:16;;;;;;;4.03;3.38;;;;;;;;;;5052340;28;20645;-64
2023/10/02 06:31:42;;;;;;;5.07;3.35;;;;;;;;;;5045280;28;20124;-63
2023/10/02 06:34:11;;;;;;;3.70;3.00;;;;;;;;;;5044738;28;20560;-64
2023/10/02 06:36:45;;;;;;;5.22;4.22;;;;;;;;;;5047759;28;20037;-63
2023/10/02 06:39:13;;;;;;;5.90;4.05;;;;;;;;;;5045641;28;20049;-63
2023/10/02 06:41:40;;;;;;;6.18;3.97;;;;;;;;;;5053688;28;20052;-63
2023/10/02 06:44:14;;;;;;;5.22;4.00;;;;;;;;;;5045836;28;20044;-64
2023/10/02 06:46:52;;;;;;;5.57;4.82;;;;;;;;;;5037779;28;20040;-63
2023/10/02 06:49:20;;;;;;;6.03;4.80;;;;;;;;;;5046735;28;20049;-64
2023/10/02 06:51:49;;;;;;;5.85;4.78;;;;;;;;;;5045737;28;20033;-63
2023/10/02 06:54:16;;;;;;;4.90;3.72;;;;;;;;;;5044777;28;20049;-63
2023/10/02 06:56:42;;;;;;;5.10;3.90;;;;;;;;;;5045471;28;20053;-63
2023/10/02 06:59:09;;;;;;;5.65;4.07;;;;;;;;;;5050506;28;20067;-63
2023/10/02 07:01:36;;;;;;;5.93;4.45;;;;;;;;;;5042650;28;20049;-63
2023/10/02 07:04:11;;;;;;;6.55;4.50;;;;;;;;;;5044495;28;20041;-63
2023/10/02 07:06:38;;;;;;;6.50;5.00;;;;;;;;;;5040968;28;20041;-63
2023/10/02 07:09:10;;;;;;;7.00;5.07;;;;;;;;;;5053382;28;20047;-63
2023/10/02 07:11:36;;;;;;;;;;;;;;;;;;5052705;28;20051;-63
2023/10/02 07:14:04;;;;;;;7.15;5.07;;;;;;;;;;5046978;28;19916;-63
2023/10/02 07:16:32;;;;;;;8.65;5.47;;;;;;;;;;5053815;28;20045;-63
2023/10/02 07:18:59;;;;;;;5.82;4.60;;;;;;;;;;5052134;28;20049;-63
2023/10/02 07:21:27;;;;;;;5.38;4.18;;;;;;;;;;5050110;28;20488;-64
2023/10/02 07:23:54;;;;;;;6.00;4.68;;;;;;;;;;5048797;28;20523;-65
2023/10/02 07:26:20;;;;;;;8.15;5.10;;;;;;;;;;5048675;28;20551;-64
2023/10/02 07:28:53;;;;;;;5.68;4.38;;;;;;;;;;5039252;28;20045;-60
2023/10/02 07:31:23;;;;;;;8.98;6.57;;;;;;;;;;5051635;28;20056;-65
2023/10/02 07:33:55;;;;;;;8.93;6.35;;;;;;;;;;5052511;28;20842;-65
2023/10/02 07:36:21;;;;;;;8.90;6.63;;;;;;;;;;5050516;28;20060;-66
2023/10/02 07:38:47;;;;;;;13.38;8.73;;;;;;;;;;5043807;28;20128;-66
2023/10/02 07:41:28;;;;;;;11.18;7.45;;;;;;;;;;5046517;28;20124;-65
2023/10/02 07:43:55;;;;;;;8.60;5.80;;;;;;;;;;5047089;28;20044;-65
2023/10/02 07:46:21;;;;;;;10.27;6.45;;;;;;;;;;5043181;28;20049;-66
2023/10/02 07:48:57;;;;;;;10.82;7.18;;;;;;;;;;5042632;28;20045;-66
2023/10/02 07:51:30;;;;;;;7.93;6.00;;;;;;;;;;5040085;28;20040;-66
2023/10/02 07:53:59;;;;;;;12.35;9.13;;;;;;;;;;5043539;28;20429;-66
2023/10/02 07:56:25;;;;;;;12.93;9.05;;;;;;;;;;5041414;28;20065;-67
2023/10/02 07:58:55;;;;;;;15.13;10.38;;;;;;;;;;5046806;28;20069;-67
2023/10/02 08:01:27;;;;;;;13.25;9.10;;;;;;;;;;5041341;28;20548;-67
2023/10/02 08:03:55;;;;;;;11.80;8.50;;;;;;;;;;5042126;28;20049;-67
2023/10/02 08:06:32;;;;;;;13.57;9.95;;;;;;;;;;5043379;28;20044;-66
2023/10/02 08:11:50;;;;;;;13.88;8.52;;;;;;;;;;5046598;28;20041;-66
2023/10/02 08:14:35;;;;;;;15.48;10.15;;;;;;;;;;5047501;28;20132;-66
2023/10/02 08:19:54;;;;;;;17.35;11.13;;;;;;;;;;5047713;28;20178;-66
2023/10/02 08:22:20;;;;;;;12.52;8.73;;;;;;;;;;5047098;28;20044;-65
2023/10/02 08:24:47;;;;;;;12.57;8.55;;;;;;;;;;5050103;28;20056;-66
2023/10/02 08:27:14;;;;;;;16.92;11.90;;;;;;;;;;5045770;28;20116;-67
2023/10/02 08:29:41;;;;;;;12.90;9.18;;;;;;;;;;5047239;28;20052;-66
2023/10/02 08:32:08;;;;;;;13.48;8.88;;;;;;;;;;5056552;28;20079;-66
2023/10/02 08:34:35;;;;;;;11.70;8.63;;;;;;;;;;5045480;28;20033;-67
2023/10/02 08:37:07;;;;;;;15.32;9.88;;;;;;;;;;5042807;28;20052;-66
2023/10/02 08:39:33;;;;;;;14.85;10.27;;;;;;;;;;5035537;28;20040;-66
2023/10/02 08:42:08;;;;;;;19.05;12.25;;;;;;;;;;5035589;28;20053;-67
2023/10/02 08:44:43;;;;;;;15.07;10.15;;;;;;;;;;5039690;28;20132;-66
2023/10/02 08:47:24;;;;;;;16.70;11.18;;;;;;;;;;5037134;28;20049;-66
2023/10/02 08:50:01;;;;;;;16.60;11.00;;;;;;;;;;5043121;28;20041;-66
2023/10/02 08:52:38;;;;;;;12.07;9.18;;;;;;;;;;5048392;28;20151;-66
2023/10/02 08:56:21;;;;;;;10.90;7.57;;;;;;;;;;5044148;28;20436;-66
2023/10/02 08:58:29;;;;;;;17.73;12.27;;;;;;;;;;5044383;28;20148;-66
2023/10/02 09:01:17;;;;;;;22.13;13.95;;;;;;;;;;5046655;28;20055;-66
2023/10/02 09:04:03;;;;;;;22.75;13.93;;;;;;;;;;5034906;28;20034;-67
2023/10/02 09:06:36;;;;;;;17.15;11.63;;;;;;;;;;5041348;28;20084;-66
2023/10/02 09:09:16;;;;;;;22.77;13.38;;;;;;;;;;5043711;28;20048;-67
2023/10/02 09:11:44;;;;;;;21.90;14.32;;;;;;;;;;5039412;28;20041;-67
2023/10/02 09:16:46;;;;;;;13.90;10.20;;;;;;;;;;5040438;28;20036;-67
2023/10/02 09:19:31;;;;;;;19.55;12.70;;;;;;;;;;5045145;28;20041;-67
2023/10/02 09:22:07;;;;;;;21.75;12.90;;;;;;;;;;5041533;28;20052;-67
2023/10/02 09:24:37;;;;;;;22.95;14.65;;;;;;;;;;5038575;28;20485;-67
2023/10/02 09:27:23;;;;;;;19.15;11.77;;;;;;;;;;5039235;28;20084;-67
2023/10/02 09:30:15;;;;;;;20.92;14.02;;;;;;;;;;5036939;28;20103;-67
2023/10/02 09:32:51;;;;;;;19.63;12.13;;;;;;;;;;5041302;28;20044;-66
2023/10/02 09:35:25;;;;;;;14.90;10.45;;;;;;;;;;5037033;28;20143;-68
2023/10/02 09:37:56;;;;;;;12.95;8.70;;;;;;;;;;5041785;28;20041;-66
2023/10/02 09:40:29;;;;;;;13.00;8.83;;;;;;;;;;5052154;28;20063;-67
2023/10/02 09:43:03;;;;;;;18.75;10.68;;;;;;;;;;5045546;28;20096;-66
2023/10/02 09:45:37;;;;;;;15.82;10.85;;;;;;;;;;5045183;28;20046;-67
2023/10/02 09:48:46;;;;;;;22.40;14.70;;;;;;;;;;5045352;28;20044;-66
2023/10/02 09:51:06;;;;;;;16.77;11.80;;;;;;;;;;5038435;28;20136;-67
2023/10/02 09:53:34;;;;;;;13.68;9.45;;;;;;;;;;5045491;28;20049;-66
2023/10/02 09:56:13;;;;;;;12.30;8.32;;;;;;;;;;5044125;28;20602;-67
2023/10/02 09:58:52;;;;;;;13.70;9.80;;;;;;;;;;5045556;28;20111;-67
2023/10/02 10:03:51;;;;;;;12.65;9.15;;;;;;;;;;5044743;28;20052;-67
2023/10/02 10:06:17;;;;;;;12.45;8.18;;;;;;;;;;5045898;28;20102;-67
2023/10/02 10:11:42;;;;;;;13.45;8.48;;;;;;;;;;5045656;28;20497;-67
2023/10/02 10:14:35;;;;;;;10.05;6.63;;;;;;;;;;5044754;28;20571;-66
2023/10/02 10:17:15;;;;;;;12.32;9.20;;;;;;;;;;5045452;28;20108;-67
2023/10/02 10:20:18;;;;;;;13.40;9.23;;;;;;;;;;5037280;28;20501;-66
2023/10/02 10:22:50;;;;;;;11.60;7.43;;;;;;;;;;5039409;28;20057;-67
2023/10/02 10:25:23;;;;;;;10.02;5.90;;;;;;;;;;5042825;28;20048;-62
2023/10/02 10:27:54;;;;;;;10.07;6.57;;;;;;;;;;5040358;28;20408;-62
2023/10/02 10:35:35;;;;;;;15.63;9.18;;;;;;;;;;5043240;28;20531;-63
2023/10/02 10:38:26;;;;;;;10.35;7.88;;;;;;;;;;5046351;28;20107;-62
2023/10/02 10:40:59;;;;;;;6.63;5.20;;;;;;;;;;5038803;28;20705;-62
2023/10/02 10:43:26;;;;;;;15.98;9.65;;;;;;;;;;5044362;28;20049;-62
2023/10/02 10:45:55;;;;;;;10.93;8.80;;;;;;;;;;5047086;28;20041;-63
2023/10/02 10:48:22;;;;;;;9.35;7.00;;;;;;;;;;5036352;28;20060;-63
2023/10/02 10:51:06;;;;;;;8.60;6.32;;;;;;;;;;5042795;28;20051;-62
2023/10/02 10:53:33;;;;;;;8.40;6.03;;;;;;;;;;5044293;28;20045;-62
2023/10/02 10:56:17;;;;;;;10.98;6.95;;;;;;;;;;5044289;28;20048;-62
2023/10/02 10:58:44;;;;;;;9.40;6.93;;;;;;;;;;5042782;28;20051;-63
2023/10/02 11:01:16;;;;;;;11.73;7.65;;;;;;;;;;5037852;28;20041;-62
2023/10/02 11:03:43;;;;;;;11.20;8.68;;;;;;;;;;5042386;28;20033;-62
2023/10/02 11:06:10;;;;;;;11.88;7.30;;;;;;;;;;5038579;28;20497;-63
2023/10/02 11:08:37;;;;;;;9.80;6.28;;;;;;;;;;5042309;28;20048;-62
2023/10/02 11:11:10;;;;;;;10.07;7.38;;;;;;;;;;5044565;28;20095;-62
2023/10/02 11:13:57;;;;;;;7.75;6.32;;;;;;;;;;5043536;28;20045;-62
2023/10/02 11:16:31;;;;;;;12.48;9.02;;;;;;;;;;5038460;28;20047;-62
2023/10/02 11:19:10;;;;;;;12.60;7.65;;;;;;;;;;5042638;28;20044;-62
2023/10/02 11:21:45;;;;;;;7.30;5.95;;;;;;;;;;5042002;28;20048;-66
2023/10/02 11:24:23;;;;;;;12.50;9.07;;;;;;;;;;5043160;28;20056;-67
2023/10/02 11:26:53;;;;;;;14.82;9.23;;;;;;;;;;5040973;28;20045;-67
2023/10/02 11:29:23;;;;;;;14.43;9.25;;;;;;;;;;5038388;28;20131;-66
2023/10/02 11:32:20;;;;;;;13.95;9.05;;;;;;;;;;5034438;28;20503;-67
2023/10/02 11:34:47;;;;;;;16.80;12.02;;;;;;;;;;5038689;28;20052;-66
2023/10/02 11:37:14;;;;;;;16.10;9.82;;;;;;;;;;5037096;28;20049;-67
2023/10/02 11:39:40;;;;;;;10.73;6.97;;;;;;;;;;5038645;28;20124;-66
2023/10/02 11:42:06;;;;;;;18.27;10.65;;;;;;;;;;5040220;28;20044;-66
2023/10/02 11:44:35;;;;;;;12.95;8.38;;;;;;;;;;5042442;28;20110;-66
2023/10/02 11:47:01;;;;;;;11.93;8.20;;;;;;;;;;5035823;28;20041;-66
2023/10/02 11:49:29;;;;;;;8.15;6.57;;;;;;;;;;5037733;28;20076;-67
2023/10/02 11:52:00;;;;;;;10.30;7.50;;;;;;;;;;5042973;28;20045;-66
2023/10/02 11:54:26;;;;;;;15.95;9.00;;;;;;;;;;5039674;28;20045;-65
2023/10/02 11:56:52;;;;;;;9.57;7.60;;;;;;;;;;5047759;28;20080;-66
2023/10/02 11:59:18;;;;;;;8.68;6.60;;;;;;;;;;5043411;28;20067;-66
2023/10/02 12:01:48;;;;;;;9.60;7.53;;;;;;;;;;5041580;28;20037;-66
2023/10/02 12:04:14;;;;;;;9.85;6.25;;;;;;;;;;5037454;28;20407;-65
2023/10/02 12:06:41;;;;;;;12.73;8.38;;;;;;;;;;5043584;28;20041;-65
2023/10/02 12:09:07;;;;;;;10.88;7.15;;;;;;;;;;5041859;28;20136;-66
2023/10/02 12:11:34;;;;;;;11.10;8.15;;;;;;;;;;5037421;28;20070;-66
2023/10/02 12:14:00;;;;;;;12.27;7.65;;;;;;;;;;5040676;28;20041;-65
2023/10/02 12:16:26;;;;;;;9.73;7.07;;;;;;;;;;5039812;28;20037;-65
2023/10/02 12:18:53;;;;;;;6.78;4.90;;;;;;;;;;5040597;28;20536;-65
2023/10/02 12:21:21;;;;;;;13.38;8.30;;;;;;;;;;5042831;28;20398;-66
2023/10/02 12:23:49;;;;;;;6.63;5.00;;;;;;;;;;5040824;28;20041;-66
2023/10/02 12:26:15;;;;;;;8.68;5.90;;;;;;;;;;5040074;28;20124;-66
2023/10/02 12:28:41;;;;;;;9.00;6.05;;;;;;;;;;5038729;28;20056;-66
2023/10/02 12:31:13;;;;;;;8.90;6.32;;;;;;;;;;5035244;28;20047;-66
2023/10/02 12:33:39;;;;;;;;;;;;;;;;;;5042223;28;20041;-66
2023/10/02 12:36:12;;;;;;;12.68;8.02;;;;;;;;;;5043254;28;19974;-66
2023/10/02 12:38:38;;;;;;;12.38;8.27;;;;;;;;;;5042561;28;20524;-66
2023/10/02 12:41:11;;;;;;;6.82;5.45;;;;;;;;;;5037889;28;20099;-66
2023/10/02 12:43:37;;;;;;;10.40;6.57;;;;;;;;;;5043203;28;20507;-66
2023/10/02 12:46:04;;;;;;;8.80;7.13;;;;;;;;;;5044004;28;20044;-66
2023/10/02 12:48:33;;;;;;;11.57;7.97;;;;;;;;;;5040677;28;20722;-66
2023/10/02 12:51:04;;;;;;;10.02;7.28;;;;;;;;;;5039339;28;20083;-66
2023/10/02 12:53:30;;;;;;;9.77;7.13;;;;;;;;;;5045794;28;20052;-66
2023/10/02 12:55:58;;;;;;;9.50;6.35;;;;;;;;;;5045223;28;20061;-66
2023/10/02 12:58:24;;;;;;;8.75;5.72;;;;;;;;;;5038601;28;20221;-67
2023/10/02 13:00:50;;;;;;;7.05;5.10;;;;;;;;;;5042596;28;20071;-66
2023/10/02 13:03:16;;;;;;;8.98;6.10;;;;;;;;;;5044758;28;20086;-65
2023/10/02 13:05:43;;;;;;;7.00;5.93;;;;;;;;;;5044161;28;20465;-66
2023/10/02 13:08:09;;;;;;;5.05;4.32;;;;;;;;;;5044208;28;20045;-66
2023/10/02 13:10:36;;;;;;;4.25;3.85;;;;;;;;;;5049215;28;20099;-66
2023/10/02 13:13:04;;;;;;;5.30;3.95;;;;;;;;;;5048558;28;20124;-66
2023/10/02 13:15:32;;;;;;;6.28;4.88;;;;;;;;;;5050023;28;20049;-64
2023/10/02 13:17:59;;;;;;;6.40;4.47;;;;;;;;;;5055585;28;20048;-65
2023/10/02 13:20:26;;;;;;;7.85;5.90;;;;;;;;;;5047597;28;20040;-65
2023/10/02 13:22:54;;;;;;;7.18;5.45;;;;;;;;;;5046373;28;20401;-65
2023/10/02 13:25:21;;;;;;;10.80;8.45;;;;;;;;;;5046406;28;20049;-65
2023/10/02 13:27:48;;;;;;;11.02;8.27;;;;;;;;;;5043854;28;20111;-66
2023/10/02 13:30:19;;;;;;;8.43;6.05;;;;;;;;;;5046793;28;20053;-66
2023/10/02 13:32:45;;;;;;;10.30;6.72;;;;;;;;;;5042880;28;20049;-66
2023/10/02 13:35:11;;;;;;;7.72;6.32;;;;;;;;;;5037178;28;20127;-66
2023/10/02 13:37:38;;;;;;;6.13;5.47;;;;;;;;;;5047312;28;20072;-66
2023/10/02 13:40:18;;;;;;;7.18;5.35;;;;;;;;;;5050913;28;20742;-66
2023/10/02 13:42:45;;;;;;;7.97;5.30;;;;;;;;;;5042793;28;20534;-66
2023/10/02 13:45:11;;;;;;;7.18;4.55;;;;;;;;;;5050996;28;20483;-65
2023/10/02 13:47:37;;;;;;;7.13;5.25;;;;;;;;;;5058657;28;20421;-65
2023/10/02 13:50:03;;;;;;;6.95;5.72;;;;;;;;;;5048378;28;20052;-65
2023/10/02 13:52:29;;;;;;;10.90;6.72;;;;;;;;;;5049700;28;20078;-65
2023/10/02 13:54:55;;;;;;;6.30;4.60;;;;;;;;;;5049864;28;20114;-66
2023/10/02 13:57:22;;;;;;;4.03;3.70;;;;;;;;;;5055695;28;20045;-66
2023/10/02 13:59:49;;;;;;;5.90;4.32;;;;;;;;;;5044504;28;20509;-67
2023/10/02 14:02:16;;;;;;;6.57;5.05;;;;;;;;;;5049225;28;20055;-66
2023/10/02 14:04:43;;;;;;;10.30;6.63;;;;;;;;;;5048986;28;20076;-66
2023/10/02 14:07:09;;;;;;;5.43;4.43;;;;;;;;;;5049459;28;20044;-66
2023/10/02 14:09:35;;;;;;;6.70;5.32;;;;;;;;;;5046343;28;20041;-66
2023/10/02 14:12:01;;;;;;;4.50;3.75;;;;;;;;;;5051705;28;20045;-66
2023/10/02 14:14:28;;;;;;;3.55;3.15;;;;;;;;;;5056889;28;20439;-67
2023/10/02 14:16:54;;;;;;;4.20;3.58;;;;;;;;;;5054951;28;20045;-67
2023/10/02 14:19:21;;;;;;;4.20;3.78;;;;;;;;;;5049258;28;20040;-66
2023/10/02 14:21:47;;;;;;;5.05;3.40;;;;;;;;;;5048152;28;20096;-66
2023/10/02 14:24:16;;;;;;;6.45;4.32;;;;;;;;;;5048311;28;20115;-66
2023/10/02 14:26:42;;;;;;;5.93;4.43;;;;;;;;;;5053474;28;20041;-66
2023/10/02 14:29:11;;;;;;;4.82;3.75;;;;;;;;;;5050385;28;20739;-66
2023/10/02 14:31:39;;;;;;;3.58;2.92;;;;;;;;;;5049220;28;20060;-66
2023/10/02 14:34:06;;;;;;;3.83;2.75;;;;;;;;;;5048026;28;20048;-66
2023/10/02 14:36:33;;;;;;;2.92;2.47;;;;;;;;;;5049509;28;20086;-66
2023/10/02 14:39:00;;;;;;;3.50;2.55;;;;;;;;;;5048016;28;20147;-66
2023/10/02 14:41:27;;;;;;;3.97;3.17;;;;;;;;;;5048155;28;20393;-66
2023/10/02 14:43:53;;;;;;;3.05;2.65;;;;;;;;;;5045350;28;20116;-67
2023/10/02 14:46:21;;;;;;;2.20;1.92;;;;;;;;;;5043609;28;20049;-67
2023/10/02 14:48:47;;;;;;;3.25;1.95;;;;;;;;;;5051608;28;20045;-66
2023/10/02 14:51:13;;;;;;;3.28;2.45;;;;;;;;;;5049387;28;20131;-66
2023/10/02 14:53:40;;;;;;;2.38;1.80;;;;;;;;;;5050279;28;20463;-66
2023/10/02 14:56:06;;;;;;;2.22;2.03;;;;;;;;;;5037439;28;20468;-66
2023/10/02 14:58:32;;;;;;;3.72;2.78;;;;;;;;;;5042527;28;20062;-66
2023/10/02 15:00:58;;;;;;;2.97;2.30;;;;;;;;;;5041868;28;20127;-66
2023/10/02 15:03:25;;;;;;;3.22;2.15;;;;;;;;;;5040449;28;20102;-66
2023/10/02 15:05:51;;;;;;;3.58;2.70;;;;;;;;;;5039488;28;20048;-67
2023/10/02 15:08:17;;;;;;;4.53;2.95;;;;;;;;;;5042464;28;20049;-66
2023/10/02 15:10:44;;;;;;;2.75;2.42;;;;;;;;;;5044566;28;20998;-66
2023/10/02 15:13:11;;;;;;;4.38;2.70;;;;;;;;;;5039082;28;20037;-66
2023/10/02 15:15:39;;;;;;;3.95;2.75;;;;;;;;;;5045950;28;20064;-65
2023/10/02 15:18:08;;;;;;;3.72;2.20;;;;;;;;;;5041229;28;20055;-65
2023/10/02 15:20:35;;;;;;;2.03;1.90;;;;;;;;;;5044497;28;20367;-65
2023/10/02 15:23:01;;;;;;;3.40;2.50;;;;;;;;;;5051732;28;20052;-65
2023/10/02 15:25:30;;;;;;;2.42;2.15;;;;;;;;;;5037923;28;20047;-65
2023/10/02 15:27:57;;;;;;;2.00;1.80;;;;;;;;;;5042203;28;20502;-68
2023/10/02 15:30:23;;;;;;;1.63;1.50;;;;;;;;;;5040904;28;20754;-64
2023/10/02 15:32:52;;;;;;;4.22;2.10;;;;;;;;;;5059451;28;20036;-65
2023/10/02 15:35:19;;;;;;;2.17;1.63;;;;;;;;;;5044907;28;20053;-70
2023/10/02 15:37:48;;;;;;;1.88;1.60;;;;;;;;;;5038939;28;20053;-68
2023/10/02 15:40:14;;;;;;;2.10;1.80;;;;;;;;;;5040255;28;20056;-66
2023/10/02 15:42:43;;;;;;;2.47;1.75;;;;;;;;;;5037244;28;20040;-67